sensor_id;sensor_type;location;lat;lon;timestamp;P1;durP1;ratioP1;P2;durP2;ratioP2
65244;SDS011;51846;48.692;2.382;2022-09-09T00:07:03;9.70;;;2.03;;
65244;SDS011;51846;48.692;2.382;2022-09-09T00:18:03;7.82;;;1.50;;
65244;SDS011;51846;48.692;2.382;2022-09-09T00:20:59;9.25;;;1.85;;
65244;SDS011;51846;48.692;2.382;2022-09-09T00:23:32;6.35;;;1.60;;
65244;SDS011;51846;48.692;2.382;2022-09-09T00:28:38;5.90;;;1.50;;
65244;SDS011;51846;48.692;2.382;2022-09-09T00:31:11;10.52;;;2.00;;
65244;SDS011;51846;48.692;2.382;2022-09-09T00:33:39;11.15;;;1.70;;
65244;SDS011;51846;48.692;2.382;2022-09-09T00:36:09;8.05;;;1.90;;
65244;SDS011;51846;48.692;2.382;2022-09-09T00:38:48;11.27;;;1.95;;
65244;SDS011;51846;48.692;2.382;2022-09-09T00:43:53;9.35;;;2.42;;
65244;SDS011;51846;48.692;2.382;2022-09-09T00:46:41;8.27;;;1.77;;
65244;SDS011;51846;48.692;2.382;2022-09-09T00:55:14;11.85;;;2.25;;
65244;SDS011;51846;48.692;2.382;2022-09-09T00:57:44;9.77;;;1.70;;
65244;SDS011;51846;48.692;2.382;2022-09-09T01:00:18;9.93;;;2.13;;
65244;SDS011;51846;48.692;2.382;2022-09-09T01:02:50;11.07;;;1.90;;
65244;SDS011;51846;48.692;2.382;2022-09-09T01:05:40;11.05;;;2.00;;
65244;SDS011;51846;48.692;2.382;2022-09-09T01:11:03;9.65;;;1.80;;
65244;SDS011;51846;48.692;2.382;2022-09-09T01:13:33;11.73;;;1.90;;
65244;SDS011;51846;48.692;2.382;2022-09-09T01:16:01;8.50;;;1.92;;
65244;SDS011;51846;48.692;2.382;2022-09-09T01:18:29;10.43;;;2.10;;
65244;SDS011;51846;48.692;2.382;2022-09-09T01:28:51;7.95;;;1.88;;
65244;SDS011;51846;48.692;2.382;2022-09-09T01:31:21;7.20;;;2.15;;
65244;SDS011;51846;48.692;2.382;2022-09-09T01:33:52;10.57;;;1.75;;
65244;SDS011;51846;48.692;2.382;2022-09-09T01:39:09;10.18;;;1.73;;
65244;SDS011;51846;48.692;2.382;2022-09-09T01:41:35;10.20;;;2.13;;
65244;SDS011;51846;48.692;2.382;2022-09-09T01:44:01;13.13;;;1.90;;
65244;SDS011;51846;48.692;2.382;2022-09-09T01:46:27;9.90;;;1.73;;
65244;SDS011;51846;48.692;2.382;2022-09-09T01:48:55;11.65;;;2.17;;
65244;SDS011;51846;48.692;2.382;2022-09-09T01:51:22;13.35;;;1.75;;
65244;SDS011;51846;48.692;2.382;2022-09-09T01:53:47;8.13;;;2.10;;
65244;SDS011;51846;48.692;2.382;2022-09-09T01:59:18;10.10;;;1.75;;
65244;SDS011;51846;48.692;2.382;2022-09-09T02:02:14;12.77;;;1.98;;
65244;SDS011;51846;48.692;2.382;2022-09-09T02:04:49;11.27;;;2.10;;
65244;SDS011;51846;48.692;2.382;2022-09-09T02:07:28;9.50;;;1.95;;
65244;SDS011;51846;48.692;2.382;2022-09-09T02:12:47;11.10;;;2.25;;
65244;SDS011;51846;48.692;2.382;2022-09-09T02:18:24;10.98;;;1.88;;
65244;SDS011;51846;48.692;2.382;2022-09-09T02:20:52;11.45;;;2.03;;
65244;SDS011;51846;48.692;2.382;2022-09-09T02:23:18;12.57;;;2.13;;
65244;SDS011;51846;48.692;2.382;2022-09-09T02:25:45;8.85;;;1.85;;
65244;SDS011;51846;48.692;2.382;2022-09-09T02:28:13;10.60;;;1.92;;
65244;SDS011;51846;48.692;2.382;2022-09-09T02:30:41;10.85;;;2.10;;
65244;SDS011;51846;48.692;2.382;2022-09-09T02:33:09;14.98;;;2.20;;
65244;SDS011;51846;48.692;2.382;2022-09-09T02:35:37;9.63;;;2.00;;
65244;SDS011;51846;48.692;2.382;2022-09-09T02:38:06;14.95;;;2.20;;
65244;SDS011;51846;48.692;2.382;2022-09-09T02:40:34;12.30;;;2.10;;
65244;SDS011;51846;48.692;2.382;2022-09-09T02:42:59;12.23;;;2.20;;
65244;SDS011;51846;48.692;2.382;2022-09-09T02:45:25;9.57;;;2.10;;
65244;SDS011;51846;48.692;2.382;2022-09-09T02:48:05;9.63;;;2.15;;
65244;SDS011;51846;48.692;2.382;2022-09-09T02:51:07;14.05;;;2.08;;
65244;SDS011;51846;48.692;2.382;2022-09-09T02:53:39;15.23;;;2.20;;
65244;SDS011;51846;48.692;2.382;2022-09-09T02:56:13;8.85;;;2.00;;
65244;SDS011;51846;48.692;2.382;2022-09-09T02:58:41;13.20;;;2.10;;
65244;SDS011;51846;48.692;2.382;2022-09-09T03:01:07;12.05;;;2.30;;
65244;SDS011;51846;48.692;2.382;2022-09-09T03:03:33;9.60;;;1.92;;
65244;SDS011;51846;48.692;2.382;2022-09-09T03:05:59;10.75;;;2.08;;
65244;SDS011;51846;48.692;2.382;2022-09-09T03:08:24;11.68;;;2.30;;
65244;SDS011;51846;48.692;2.382;2022-09-09T03:10:50;13.98;;;2.38;;
65244;SDS011;51846;48.692;2.382;2022-09-09T03:13:19;15.18;;;1.98;;
65244;SDS011;51846;48.692;2.382;2022-09-09T03:15:44;9.52;;;1.70;;
65244;SDS011;51846;48.692;2.382;2022-09-09T03:18:10;12.48;;;2.10;;
65244;SDS011;51846;48.692;2.382;2022-09-09T03:20:35;9.45;;;2.00;;
65244;SDS011;51846;48.692;2.382;2022-09-09T03:23:00;11.25;;;1.90;;
65244;SDS011;51846;48.692;2.382;2022-09-09T03:25:27;11.35;;;2.20;;
65244;SDS011;51846;48.692;2.382;2022-09-09T03:27:53;11.80;;;2.33;;
65244;SDS011;51846;48.692;2.382;2022-09-09T03:30:20;13.95;;;1.85;;
65244;SDS011;51846;48.692;2.382;2022-09-09T03:32:53;10.95;;;2.10;;
65244;SDS011;51846;48.692;2.382;2022-09-09T03:35:20;11.23;;;1.98;;
65244;SDS011;51846;48.692;2.382;2022-09-09T03:37:45;13.32;;;2.20;;
65244;SDS011;51846;48.692;2.382;2022-09-09T03:40:11;9.50;;;1.98;;
65244;SDS011;51846;48.692;2.382;2022-09-09T03:42:37;13.88;;;2.45;;
65244;SDS011;51846;48.692;2.382;2022-09-09T03:45:11;12.93;;;2.40;;
65244;SDS011;51846;48.692;2.382;2022-09-09T03:47:37;14.15;;;2.38;;
65244;SDS011;51846;48.692;2.382;2022-09-09T03:50:03;13.77;;;2.53;;
65244;SDS011;51846;48.692;2.382;2022-09-09T03:52:34;12.93;;;2.47;;
65244;SDS011;51846;48.692;2.382;2022-09-09T03:55:00;12.98;;;2.53;;
65244;SDS011;51846;48.692;2.382;2022-09-09T03:57:26;9.57;;;2.00;;
65244;SDS011;51846;48.692;2.382;2022-09-09T03:59:52;12.07;;;2.40;;
65244;SDS011;51846;48.692;2.382;2022-09-09T04:02:17;10.07;;;2.10;;
65244;SDS011;51846;48.692;2.382;2022-09-09T04:04:42;13.60;;;2.40;;
65244;SDS011;51846;48.692;2.382;2022-09-09T04:07:08;11.60;;;2.30;;
65244;SDS011;51846;48.692;2.382;2022-09-09T04:09:33;14.38;;;2.42;;
65244;SDS011;51846;48.692;2.382;2022-09-09T04:11:59;11.45;;;2.40;;
65244;SDS011;51846;48.692;2.382;2022-09-09T04:14:25;11.95;;;2.40;;
65244;SDS011;51846;48.692;2.382;2022-09-09T04:16:53;11.50;;;2.55;;
65244;SDS011;51846;48.692;2.382;2022-09-09T04:19:19;11.98;;;2.33;;
65244;SDS011;51846;48.692;2.382;2022-09-09T04:21:44;12.75;;;2.40;;
65244;SDS011;51846;48.692;2.382;2022-09-09T04:24:10;11.20;;;2.33;;
65244;SDS011;51846;48.692;2.382;2022-09-09T04:26:35;13.48;;;2.30;;
65244;SDS011;51846;48.692;2.382;2022-09-09T04:29:02;11.93;;;2.58;;
65244;SDS011;51846;48.692;2.382;2022-09-09T04:31:28;15.40;;;2.47;;
65244;SDS011;51846;48.692;2.382;2022-09-09T04:33:54;8.60;;;1.98;;
65244;SDS011;51846;48.692;2.382;2022-09-09T04:36:19;13.88;;;2.42;;
65244;SDS011;51846;48.692;2.382;2022-09-09T04:38:45;10.75;;;2.20;;
65244;SDS011;51846;48.692;2.382;2022-09-09T04:41:11;16.00;;;2.50;;
65244;SDS011;51846;48.692;2.382;2022-09-09T04:43:38;12.05;;;2.33;;
65244;SDS011;51846;48.692;2.382;2022-09-09T04:46:04;11.05;;;2.20;;
65244;SDS011;51846;48.692;2.382;2022-09-09T04:48:30;10.27;;;2.10;;
65244;SDS011;51846;48.692;2.382;2022-09-09T04:53:31;12.73;;;2.22;;
65244;SDS011;51846;48.692;2.382;2022-09-09T04:56:06;12.95;;;2.65;;
65244;SDS011;51846;48.692;2.382;2022-09-09T04:58:36;11.20;;;2.45;;
65244;SDS011;51846;48.692;2.382;2022-09-09T05:01:05;10.50;;;2.20;;
65244;SDS011;51846;48.692;2.382;2022-09-09T05:03:32;15.90;;;2.67;;
65244;SDS011;51846;48.692;2.382;2022-09-09T05:06:07;12.45;;;2.30;;
65244;SDS011;51846;48.692;2.382;2022-09-09T05:08:36;13.30;;;2.35;;
65244;SDS011;51846;48.692;2.382;2022-09-09T05:11:02;9.60;;;2.00;;
65244;SDS011;51846;48.692;2.382;2022-09-09T05:13:29;14.93;;;2.63;;
65244;SDS011;51846;48.692;2.382;2022-09-09T05:15:56;21.98;;;2.95;;
65244;SDS011;51846;48.692;2.382;2022-09-09T05:18:21;13.50;;;2.40;;
65244;SDS011;51846;48.692;2.382;2022-09-09T05:20:47;15.35;;;2.92;;
65244;SDS011;51846;48.692;2.382;2022-09-09T05:23:23;15.23;;;2.60;;
65244;SDS011;51846;48.692;2.382;2022-09-09T05:25:57;19.63;;;3.08;;
65244;SDS011;51846;48.692;2.382;2022-09-09T05:28:24;10.63;;;2.20;;
65244;SDS011;51846;48.692;2.382;2022-09-09T05:31:00;13.63;;;2.10;;
65244;SDS011;51846;48.692;2.382;2022-09-09T05:33:30;11.85;;;2.47;;
65244;SDS011;51846;48.692;2.382;2022-09-09T05:35:57;11.80;;;2.13;;
65244;SDS011;51846;48.692;2.382;2022-09-09T05:38:27;15.07;;;3.10;;
65244;SDS011;51846;48.692;2.382;2022-09-09T05:40:53;10.63;;;2.40;;
65244;SDS011;51846;48.692;2.382;2022-09-09T05:43:21;11.55;;;2.70;;
65244;SDS011;51846;48.692;2.382;2022-09-09T05:45:47;14.07;;;2.85;;
65244;SDS011;51846;48.692;2.382;2022-09-09T05:48:15;16.70;;;3.08;;
65244;SDS011;51846;48.692;2.382;2022-09-09T05:50:41;10.30;;;2.28;;
65244;SDS011;51846;48.692;2.382;2022-09-09T05:53:07;9.88;;;2.25;;
65244;SDS011;51846;48.692;2.382;2022-09-09T05:55:33;10.82;;;2.45;;
65244;SDS011;51846;48.692;2.382;2022-09-09T05:57:59;14.13;;;2.53;;
65244;SDS011;51846;48.692;2.382;2022-09-09T06:00:24;12.60;;;2.50;;
65244;SDS011;51846;48.692;2.382;2022-09-09T06:02:51;17.15;;;2.75;;
65244;SDS011;51846;48.692;2.382;2022-09-09T06:05:17;13.38;;;2.63;;
65244;SDS011;51846;48.692;2.382;2022-09-09T06:07:43;8.68;;;2.30;;
65244;SDS011;51846;48.692;2.382;2022-09-09T06:10:09;16.83;;;2.38;;
65244;SDS011;51846;48.692;2.382;2022-09-09T06:12:35;12.98;;;2.13;;
65244;SDS011;51846;48.692;2.382;2022-09-09T06:15:01;11.68;;;2.60;;
65244;SDS011;51846;48.692;2.382;2022-09-09T06:17:26;14.63;;;2.53;;
65244;SDS011;51846;48.692;2.382;2022-09-09T06:19:52;13.55;;;2.42;;
65244;SDS011;51846;48.692;2.382;2022-09-09T06:22:18;10.43;;;2.58;;
65244;SDS011;51846;48.692;2.382;2022-09-09T06:24:44;10.77;;;2.47;;
65244;SDS011;51846;48.692;2.382;2022-09-09T06:27:09;21.02;;;3.80;;
65244;SDS011;51846;48.692;2.382;2022-09-09T06:29:35;14.63;;;2.50;;
65244;SDS011;51846;48.692;2.382;2022-09-09T06:32:01;13.15;;;2.17;;
65244;SDS011;51846;48.692;2.382;2022-09-09T06:34:28;11.73;;;2.75;;
65244;SDS011;51846;48.692;2.382;2022-09-09T06:36:53;12.82;;;2.47;;
65244;SDS011;51846;48.692;2.382;2022-09-09T06:39:20;10.63;;;1.95;;
65244;SDS011;51846;48.692;2.382;2022-09-09T06:41:46;11.73;;;2.50;;
65244;SDS011;51846;48.692;2.382;2022-09-09T06:44:12;10.05;;;2.80;;
65244;SDS011;51846;48.692;2.382;2022-09-09T06:46:37;14.40;;;2.42;;
65244;SDS011;51846;48.692;2.382;2022-09-09T06:49:03;9.32;;;2.33;;
65244;SDS011;51846;48.692;2.382;2022-09-09T06:51:29;14.98;;;2.85;;
65244;SDS011;51846;48.692;2.382;2022-09-09T06:53:56;10.38;;;2.40;;
65244;SDS011;51846;48.692;2.382;2022-09-09T06:56:33;12.80;;;2.40;;
65244;SDS011;51846;48.692;2.382;2022-09-09T06:59:00;11.38;;;2.10;;
65244;SDS011;51846;48.692;2.382;2022-09-09T07:01:29;10.13;;;2.13;;
65244;SDS011;51846;48.692;2.382;2022-09-09T07:03:57;12.70;;;2.85;;
65244;SDS011;51846;48.692;2.382;2022-09-09T07:06:40;8.52;;;2.10;;
65244;SDS011;51846;48.692;2.382;2022-09-09T07:09:09;10.60;;;2.10;;
65244;SDS011;51846;48.692;2.382;2022-09-09T07:11:39;8.70;;;2.25;;
65244;SDS011;51846;48.692;2.382;2022-09-09T07:14:09;10.85;;;2.38;;
65244;SDS011;51846;48.692;2.382;2022-09-09T07:16:39;10.05;;;2.05;;
65244;SDS011;51846;48.692;2.382;2022-09-09T07:19:05;11.25;;;2.38;;
65244;SDS011;51846;48.692;2.382;2022-09-09T07:21:31;9.40;;;1.95;;
65244;SDS011;51846;48.692;2.382;2022-09-09T07:23:58;10.68;;;2.20;;
65244;SDS011;51846;48.692;2.382;2022-09-09T07:26:25;10.13;;;2.05;;
65244;SDS011;51846;48.692;2.382;2022-09-09T07:28:52;10.77;;;2.30;;
65244;SDS011;51846;48.692;2.382;2022-09-09T07:31:19;8.30;;;2.00;;
65244;SDS011;51846;48.692;2.382;2022-09-09T07:33:47;9.15;;;2.05;;
65244;SDS011;51846;48.692;2.382;2022-09-09T07:36:20;10.60;;;2.00;;
65244;SDS011;51846;48.692;2.382;2022-09-09T07:38:48;15.37;;;2.47;;
65244;SDS011;51846;48.692;2.382;2022-09-09T07:41:20;11.63;;;2.08;;
65244;SDS011;51846;48.692;2.382;2022-09-09T07:43:50;8.70;;;2.00;;
65244;SDS011;51846;48.692;2.382;2022-09-09T07:46:19;8.88;;;1.83;;
65244;SDS011;51846;48.692;2.382;2022-09-09T07:48:46;9.63;;;1.80;;
65244;SDS011;51846;48.692;2.382;2022-09-09T07:51:16;7.57;;;2.17;;
65244;SDS011;51846;48.692;2.382;2022-09-09T07:53:45;11.55;;;2.08;;
65244;SDS011;51846;48.692;2.382;2022-09-09T07:56:12;9.57;;;1.80;;
65244;SDS011;51846;48.692;2.382;2022-09-09T07:58:39;9.75;;;1.58;;
65244;SDS011;51846;48.692;2.382;2022-09-09T08:01:09;7.30;;;1.52;;
65244;SDS011;51846;48.692;2.382;2022-09-09T08:03:41;7.47;;;1.70;;
65244;SDS011;51846;48.692;2.382;2022-09-09T08:06:07;7.60;;;1.80;;
65244;SDS011;51846;48.692;2.382;2022-09-09T08:08:34;12.30;;;1.95;;
65244;SDS011;51846;48.692;2.382;2022-09-09T08:11:08;6.40;;;1.70;;
65244;SDS011;51846;48.692;2.382;2022-09-09T08:13:36;7.85;;;1.80;;
65244;SDS011;51846;48.692;2.382;2022-09-09T08:16:03;8.13;;;1.63;;
65244;SDS011;51846;48.692;2.382;2022-09-09T08:18:30;8.60;;;1.58;;
65244;SDS011;51846;48.692;2.382;2022-09-09T08:20:55;8.63;;;1.80;;
65244;SDS011;51846;48.692;2.382;2022-09-09T08:23:21;6.03;;;1.70;;
65244;SDS011;51846;48.692;2.382;2022-09-09T08:25:46;7.82;;;1.60;;
65244;SDS011;51846;48.692;2.382;2022-09-09T08:28:15;7.32;;;1.95;;
65244;SDS011;51846;48.692;2.382;2022-09-09T08:30:40;8.93;;;1.80;;
65244;SDS011;51846;48.692;2.382;2022-09-09T08:33:06;9.68;;;2.03;;
65244;SDS011;51846;48.692;2.382;2022-09-09T08:35:32;9.77;;;1.83;;
65244;SDS011;51846;48.692;2.382;2022-09-09T08:37:58;10.27;;;1.65;;
65244;SDS011;51846;48.692;2.382;2022-09-09T08:40:26;9.60;;;1.92;;
65244;SDS011;51846;48.692;2.382;2022-09-09T08:42:54;7.43;;;1.70;;
65244;SDS011;51846;48.692;2.382;2022-09-09T08:45:26;7.07;;;1.63;;
65244;SDS011;51846;48.692;2.382;2022-09-09T08:48:19;7.45;;;1.58;;
65244;SDS011;51846;48.692;2.382;2022-09-09T08:51:01;6.38;;;1.50;;
65244;SDS011;51846;48.692;2.382;2022-09-09T08:53:28;7.60;;;1.80;;
65244;SDS011;51846;48.692;2.382;2022-09-09T08:56:04;9.10;;;1.77;;
65244;SDS011;51846;48.692;2.382;2022-09-09T08:58:38;5.43;;;1.40;;
65244;SDS011;51846;48.692;2.382;2022-09-09T09:01:39;9.55;;;1.70;;
65244;SDS011;51846;48.692;2.382;2022-09-09T09:15:11;10.15;;;1.70;;
65244;SDS011;51846;48.692;2.382;2022-09-09T09:20:12;6.57;;;1.58;;
65244;SDS011;51846;48.692;2.382;2022-09-09T09:22:49;8.55;;;1.70;;
65244;SDS011;51846;48.692;2.382;2022-09-09T09:25:20;4.32;;;1.50;;
65244;SDS011;51846;48.692;2.382;2022-09-09T09:28:02;8.30;;;2.15;;
65244;SDS011;51846;48.692;2.382;2022-09-09T09:30:36;4.80;;;1.40;;
65244;SDS011;51846;48.692;2.382;2022-09-09T09:35:52;6.85;;;1.70;;
65244;SDS011;51846;48.692;2.382;2022-09-09T09:38:19;6.05;;;1.60;;
65244;SDS011;51846;48.692;2.382;2022-09-09T09:40:54;6.70;;;1.67;;
65244;SDS011;51846;48.692;2.382;2022-09-09T09:43:26;12.75;;;1.85;;
65244;SDS011;51846;48.692;2.382;2022-09-09T09:45:53;7.28;;;1.50;;
65244;SDS011;51846;48.692;2.382;2022-09-09T09:48:19;6.63;;;1.50;;
65244;SDS011;51846;48.692;2.382;2022-09-09T09:53:20;3.78;;;1.30;;
65244;SDS011;51846;48.692;2.382;2022-09-09T09:55:52;5.53;;;1.50;;
65244;SDS011;51846;48.692;2.382;2022-09-09T09:58:20;7.15;;;1.60;;
65244;SDS011;51846;48.692;2.382;2022-09-09T10:00:49;8.27;;;1.50;;
65244;SDS011;51846;48.692;2.382;2022-09-09T10:03:25;6.90;;;1.80;;
65244;SDS011;51846;48.692;2.382;2022-09-09T10:05:53;4.70;;;1.30;;
65244;SDS011;51846;48.692;2.382;2022-09-09T10:08:21;5.88;;;1.80;;
65244;SDS011;51846;48.692;2.382;2022-09-09T10:13:27;7.22;;;1.80;;
65244;SDS011;51846;48.692;2.382;2022-09-09T10:18:38;8.83;;;1.83;;
65244;SDS011;51846;48.692;2.382;2022-09-09T10:31:50;8.52;;;2.00;;
65244;SDS011;51846;48.692;2.382;2022-09-09T10:36:56;6.28;;;1.90;;
65244;SDS011;51846;48.692;2.382;2022-09-09T10:39:28;8.10;;;2.00;;
65244;SDS011;51846;48.692;2.382;2022-09-09T10:52:37;8.05;;;1.52;;
65244;SDS011;51846;48.692;2.382;2022-09-09T10:55:10;6.05;;;1.40;;
65244;SDS011;51846;48.692;2.382;2022-09-09T10:57:45;7.20;;;1.52;;
65244;SDS011;51846;48.692;2.382;2022-09-09T11:00:19;6.63;;;1.40;;
65244;SDS011;51846;48.692;2.382;2022-09-09T11:03:02;6.47;;;1.45;;
65244;SDS011;51846;48.692;2.382;2022-09-09T11:05:30;6.28;;;1.38;;
65244;SDS011;51846;48.692;2.382;2022-09-09T11:08:18;7.93;;;1.85;;
65244;SDS011;51846;48.692;2.382;2022-09-09T11:10:48;7.20;;;1.85;;
65244;SDS011;51846;48.692;2.382;2022-09-09T11:18:48;5.72;;;1.50;;
65244;SDS011;51846;48.692;2.382;2022-09-09T11:21:22;8.38;;;1.75;;
65244;SDS011;51846;48.692;2.382;2022-09-09T11:23:55;6.32;;;1.30;;
65244;SDS011;51846;48.692;2.382;2022-09-09T11:26:31;7.22;;;1.38;;
65244;SDS011;51846;48.692;2.382;2022-09-09T11:31:52;4.47;;;1.35;;
65244;SDS011;51846;48.692;2.382;2022-09-09T11:34:40;4.38;;;1.20;;
65244;SDS011;51846;48.692;2.382;2022-09-09T11:37:47;5.20;;;1.42;;
65244;SDS011;51846;48.692;2.382;2022-09-09T11:40:20;6.65;;;1.52;;
65244;SDS011;51846;48.692;2.382;2022-09-09T11:42:48;6.32;;;1.50;;
65244;SDS011;51846;48.692;2.382;2022-09-09T11:45:26;5.18;;;1.42;;
65244;SDS011;51846;48.692;2.382;2022-09-09T11:47:55;9.82;;;1.40;;
65244;SDS011;51846;48.692;2.382;2022-09-09T11:52:48;4.97;;;1.30;;
65244;SDS011;51846;48.692;2.382;2022-09-09T11:55:24;5.85;;;1.42;;
65244;SDS011;51846;48.692;2.382;2022-09-09T12:00:48;7.85;;;1.50;;
65244;SDS011;51846;48.692;2.382;2022-09-09T12:08:42;6.13;;;1.50;;
65244;SDS011;51846;48.692;2.382;2022-09-09T12:11:10;11.73;;;1.77;;
65244;SDS011;51846;48.692;2.382;2022-09-09T12:13:36;5.88;;;1.50;;
65244;SDS011;51846;48.692;2.382;2022-09-09T12:16:01;5.72;;;1.35;;
65244;SDS011;51846;48.692;2.382;2022-09-09T12:18:37;4.57;;;1.20;;
65244;SDS011;51846;48.692;2.382;2022-09-09T12:23:50;6.15;;;1.58;;
65244;SDS011;51846;48.692;2.382;2022-09-09T12:32:06;7.63;;;1.63;;
65244;SDS011;51846;48.692;2.382;2022-09-09T12:34:46;5.80;;;1.58;;
65244;SDS011;51846;48.692;2.382;2022-09-09T12:40:02;6.13;;;1.77;;
65244;SDS011;51846;48.692;2.382;2022-09-09T12:42:30;4.43;;;1.50;;
65244;SDS011;51846;48.692;2.382;2022-09-09T12:45:01;7.75;;;1.27;;
65244;SDS011;51846;48.692;2.382;2022-09-09T12:50:25;6.68;;;1.35;;
65244;SDS011;51846;48.692;2.382;2022-09-09T12:52:59;5.18;;;1.15;;
65244;SDS011;51846;48.692;2.382;2022-09-09T12:55:29;4.40;;;1.23;;
65244;SDS011;51846;48.692;2.382;2022-09-09T12:57:58;7.60;;;1.50;;
65244;SDS011;51846;48.692;2.382;2022-09-09T13:00:25;4.00;;;1.33;;
65244;SDS011;51846;48.692;2.382;2022-09-09T13:02:53;6.07;;;1.50;;
65244;SDS011;51846;48.692;2.382;2022-09-09T13:05:41;4.93;;;1.40;;
65244;SDS011;51846;48.692;2.382;2022-09-09T13:08:11;10.15;;;1.77;;
65244;SDS011;51846;48.692;2.382;2022-09-09T13:10:38;5.18;;;1.30;;
65244;SDS011;51846;48.692;2.382;2022-09-09T13:13:29;5.32;;;1.33;;
65244;SDS011;51846;48.692;2.382;2022-09-09T13:15:59;4.37;;;1.30;;
65244;SDS011;51846;48.692;2.382;2022-09-09T13:18:27;5.07;;;1.30;;
65244;SDS011;51846;48.692;2.382;2022-09-09T13:20:54;5.13;;;1.17;;
65244;SDS011;51846;48.692;2.382;2022-09-09T13:23:22;8.30;;;1.60;;
65244;SDS011;51846;48.692;2.382;2022-09-09T13:26:04;7.70;;;1.40;;
65244;SDS011;51846;48.692;2.382;2022-09-09T13:28:32;6.20;;;1.40;;
65244;SDS011;51846;48.692;2.382;2022-09-09T13:31:00;6.90;;;1.40;;
65244;SDS011;51846;48.692;2.382;2022-09-09T13:33:32;5.43;;;1.60;;
65244;SDS011;51846;48.692;2.382;2022-09-09T13:36:05;8.43;;;1.40;;
65244;SDS011;51846;48.692;2.382;2022-09-09T13:38:37;9.45;;;1.75;;
65244;SDS011;51846;48.692;2.382;2022-09-09T13:41:06;9.75;;;1.90;;
65244;SDS011;51846;48.692;2.382;2022-09-09T13:43:37;8.77;;;1.90;;
65244;SDS011;51846;48.692;2.382;2022-09-09T13:49:17;5.90;;;1.80;;
65244;SDS011;51846;48.692;2.382;2022-09-09T13:51:48;5.82;;;1.45;;
65244;SDS011;51846;48.692;2.382;2022-09-09T13:54:27;5.72;;;1.60;;
65244;SDS011;51846;48.692;2.382;2022-09-09T13:56:52;8.43;;;1.70;;
65244;SDS011;51846;48.692;2.382;2022-09-09T13:59:19;8.07;;;1.95;;
65244;SDS011;51846;48.692;2.382;2022-09-09T14:01:45;6.80;;;1.83;;
65244;SDS011;51846;48.692;2.382;2022-09-09T14:04:11;7.88;;;1.92;;
65244;SDS011;51846;48.692;2.382;2022-09-09T14:06:37;5.47;;;1.50;;
65244;SDS011;51846;48.692;2.382;2022-09-09T14:09:07;7.72;;;1.77;;
65244;SDS011;51846;48.692;2.382;2022-09-09T14:11:36;9.20;;;1.95;;
65244;SDS011;51846;48.692;2.382;2022-09-09T14:14:02;6.72;;;1.90;;
65244;SDS011;51846;48.692;2.382;2022-09-09T14:16:27;5.88;;;1.80;;
65244;SDS011;51846;48.692;2.382;2022-09-09T14:18:54;7.13;;;2.22;;
65244;SDS011;51846;48.692;2.382;2022-09-09T14:21:24;5.63;;;1.70;;
65244;SDS011;51846;48.692;2.382;2022-09-09T14:23:50;5.82;;;1.75;;
65244;SDS011;51846;48.692;2.382;2022-09-09T14:26:16;7.47;;;1.55;;
65244;SDS011;51846;48.692;2.382;2022-09-09T14:28:43;5.65;;;1.60;;
65244;SDS011;51846;48.692;2.382;2022-09-09T14:31:10;6.13;;;1.60;;
65244;SDS011;51846;48.692;2.382;2022-09-09T14:33:35;7.68;;;1.55;;
65244;SDS011;51846;48.692;2.382;2022-09-09T14:36:01;7.22;;;1.55;;
65244;SDS011;51846;48.692;2.382;2022-09-09T14:38:28;6.93;;;1.50;;
65244;SDS011;51846;48.692;2.382;2022-09-09T14:40:55;7.95;;;1.58;;
65244;SDS011;51846;48.692;2.382;2022-09-09T14:43:21;5.43;;;1.40;;
65244;SDS011;51846;48.692;2.382;2022-09-09T14:45:46;6.68;;;1.90;;
65244;SDS011;51846;48.692;2.382;2022-09-09T14:48:13;4.03;;;1.17;;
65244;SDS011;51846;48.692;2.382;2022-09-09T14:50:39;5.55;;;1.50;;
65244;SDS011;51846;48.692;2.382;2022-09-09T14:53:06;5.20;;;1.60;;
65244;SDS011;51846;48.692;2.382;2022-09-09T14:55:33;6.88;;;1.70;;
65244;SDS011;51846;48.692;2.382;2022-09-09T14:57:59;5.32;;;1.50;;
65244;SDS011;51846;48.692;2.382;2022-09-09T15:00:24;5.75;;;1.50;;
65244;SDS011;51846;48.692;2.382;2022-09-09T15:02:51;5.45;;;1.40;;
65244;SDS011;51846;48.692;2.382;2022-09-09T15:05:18;5.43;;;1.38;;
65244;SDS011;51846;48.692;2.382;2022-09-09T15:07:44;7.00;;;1.70;;
65244;SDS011;51846;48.692;2.382;2022-09-09T15:10:10;4.68;;;1.40;;
65244;SDS011;51846;48.692;2.382;2022-09-09T15:12:36;4.93;;;1.38;;
65244;SDS011;51846;48.692;2.382;2022-09-09T15:15:02;4.32;;;1.10;;
65244;SDS011;51846;48.692;2.382;2022-09-09T15:17:28;2.67;;;1.00;;
65244;SDS011;51846;48.692;2.382;2022-09-09T15:19:53;3.78;;;1.20;;
65244;SDS011;51846;48.692;2.382;2022-09-09T15:22:19;3.97;;;1.20;;
65244;SDS011;51846;48.692;2.382;2022-09-09T15:24:45;3.13;;;1.10;;
65244;SDS011;51846;48.692;2.382;2022-09-09T15:27:10;4.45;;;1.23;;
65244;SDS011;51846;48.692;2.382;2022-09-09T15:29:35;3.67;;;1.27;;
65244;SDS011;51846;48.692;2.382;2022-09-09T15:32:03;7.75;;;1.52;;
65244;SDS011;51846;48.692;2.382;2022-09-09T15:34:28;5.55;;;1.38;;
65244;SDS011;51846;48.692;2.382;2022-09-09T15:36:54;3.13;;;1.10;;
65244;SDS011;51846;48.692;2.382;2022-09-09T15:39:20;5.63;;;1.48;;
65244;SDS011;51846;48.692;2.382;2022-09-09T15:41:46;4.72;;;1.80;;
65244;SDS011;51846;48.692;2.382;2022-09-09T15:44:13;3.38;;;1.20;;
65244;SDS011;51846;48.692;2.382;2022-09-09T15:46:48;6.35;;;1.63;;
65244;SDS011;51846;48.692;2.382;2022-09-09T15:51:43;5.32;;;1.50;;
65244;SDS011;51846;48.692;2.382;2022-09-09T15:54:14;4.97;;;1.40;;
65244;SDS011;51846;48.692;2.382;2022-09-09T15:59:11;6.85;;;1.50;;
65244;SDS011;51846;48.692;2.382;2022-09-09T16:01:37;6.78;;;1.60;;
65244;SDS011;51846;48.692;2.382;2022-09-09T16:04:04;4.22;;;1.25;;
65244;SDS011;51846;48.692;2.382;2022-09-09T16:06:30;5.32;;;1.48;;
65244;SDS011;51846;48.692;2.382;2022-09-09T16:08:59;3.75;;;1.13;;
65244;SDS011;51846;48.692;2.382;2022-09-09T16:11:30;3.20;;;1.17;;
65244;SDS011;51846;48.692;2.382;2022-09-09T16:13:57;4.68;;;1.30;;
65244;SDS011;51846;48.692;2.382;2022-09-09T16:16:24;3.42;;;1.25;;
65244;SDS011;51846;48.692;2.382;2022-09-09T16:18:53;6.78;;;1.55;;
65244;SDS011;51846;48.692;2.382;2022-09-09T16:21:24;4.60;;;1.50;;
65244;SDS011;51846;48.692;2.382;2022-09-09T16:23:56;4.97;;;1.20;;
65244;SDS011;51846;48.692;2.382;2022-09-09T16:26:24;4.75;;;1.73;;
65244;SDS011;51846;48.692;2.382;2022-09-09T16:28:50;3.92;;;1.60;;
65244;SDS011;51846;48.692;2.382;2022-09-09T16:31:16;4.95;;;1.35;;
65244;SDS011;51846;48.692;2.382;2022-09-09T16:33:44;4.55;;;1.40;;
65244;SDS011;51846;48.692;2.382;2022-09-09T16:36:11;3.42;;;1.40;;
65244;SDS011;51846;48.692;2.382;2022-09-09T16:38:39;5.22;;;1.30;;
65244;SDS011;51846;48.692;2.382;2022-09-09T16:41:05;2.65;;;1.08;;
65244;SDS011;51846;48.692;2.382;2022-09-09T16:43:35;2.55;;;1.02;;
65244;SDS011;51846;48.692;2.382;2022-09-09T16:46:01;4.45;;;1.23;;
65244;SDS011;51846;48.692;2.382;2022-09-09T16:48:31;7.13;;;1.20;;
65244;SDS011;51846;48.692;2.382;2022-09-09T16:51:04;3.03;;;1.05;;
65244;SDS011;51846;48.692;2.382;2022-09-09T16:53:31;2.72;;;1.17;;
65244;SDS011;51846;48.692;2.382;2022-09-09T16:55:57;2.17;;;1.08;;
65244;SDS011;51846;48.692;2.382;2022-09-09T16:58:22;3.25;;;1.20;;
65244;SDS011;51846;48.692;2.382;2022-09-09T17:00:48;2.60;;;1.00;;
65244;SDS011;51846;48.692;2.382;2022-09-09T17:03:14;3.53;;;1.10;;
65244;SDS011;51846;48.692;2.382;2022-09-09T17:05:40;3.35;;;1.20;;
65244;SDS011;51846;48.692;2.382;2022-09-09T17:08:06;2.90;;;1.00;;
65244;SDS011;51846;48.692;2.382;2022-09-09T17:10:31;3.85;;;1.30;;
65244;SDS011;51846;48.692;2.382;2022-09-09T17:12:57;5.32;;;1.40;;
65244;SDS011;51846;48.692;2.382;2022-09-09T17:15:22;3.25;;;1.00;;